sensor_id;sensor_type;location;lat;lon;timestamp;P1;durP1;ratioP1;P2;durP2;ratioP2
11245;SDS011;59870;50.106;8.580;2023-03-05T00:01:24;12.20;;;11.10;;
11245;SDS011;59870;50.106;8.580;2023-03-05T00:03:54;11.27;;;10.17;;
11245;SDS011;59870;50.106;8.580;2023-03-05T00:06:23;12.07;;;10.93;;
11245;SDS011;59870;50.106;8.580;2023-03-05T00:08:52;11.90;;;10.50;;
11245;SDS011;59870;50.106;8.580;2023-03-05T00:11:22;13.00;;;10.53;;
11245;SDS011;59870;50.106;8.580;2023-03-05T00:13:51;13.63;;;11.07;;
11245;SDS011;59870;50.106;8.580;2023-03-05T00:16:20;14.80;;;10.60;;
11245;SDS011;59870;50.106;8.580;2023-03-05T00:18:48;12.30;;;10.93;;
11245;SDS011;59870;50.106;8.580;2023-03-05T00:21:35;11.33;;;10.00;;
11245;SDS011;59870;50.106;8.580;2023-03-05T00:24:05;10.27;;;9.23;;
11245;SDS011;59870;50.106;8.580;2023-03-05T00:26:36;11.70;;;10.50;;
11245;SDS011;59870;50.106;8.580;2023-03-05T00:29:05;12.23;;;10.30;;
11245;SDS011;59870;50.106;8.580;2023-03-05T00:31:35;11.57;;;10.57;;
11245;SDS011;59870;50.106;8.580;2023-03-05T00:34:07;10.30;;;9.30;;
11245;SDS011;59870;50.106;8.580;2023-03-05T00:36:41;10.67;;;9.40;;
11245;SDS011;59870;50.106;8.580;2023-03-05T00:39:10;10.83;;;9.13;;
11245;SDS011;59870;50.106;8.580;2023-03-05T00:41:37;10.07;;;9.23;;
11245;SDS011;59870;50.106;8.580;2023-03-05T00:44:05;11.03;;;9.93;;
11245;SDS011;59870;50.106;8.580;2023-03-05T00:46:34;8.87;;;8.17;;
11245;SDS011;59870;50.106;8.580;2023-03-05T00:49:02;9.97;;;8.97;;
11245;SDS011;59870;50.106;8.580;2023-03-05T00:51:30;9.73;;;8.53;;
11245;SDS011;59870;50.106;8.580;2023-03-05T00:53:57;9.87;;;8.33;;
11245;SDS011;59870;50.106;8.580;2023-03-05T00:56:25;12.33;;;9.03;;
11245;SDS011;59870;50.106;8.580;2023-03-05T00:58:54;12.57;;;9.23;;
11245;SDS011;59870;50.106;8.580;2023-03-05T01:01:22;9.20;;;8.30;;
11245;SDS011;59870;50.106;8.580;2023-03-05T01:03:49;11.10;;;8.80;;
11245;SDS011;59870;50.106;8.580;2023-03-05T01:06:17;9.17;;;8.30;;
11245;SDS011;59870;50.106;8.580;2023-03-05T01:08:44;10.10;;;7.47;;
11245;SDS011;59870;50.106;8.580;2023-03-05T01:11:13;10.17;;;8.63;;
11245;SDS011;59870;50.106;8.580;2023-03-05T01:13:40;11.03;;;7.77;;
11245;SDS011;59870;50.106;8.580;2023-03-05T01:16:08;8.27;;;7.57;;
11245;SDS011;59870;50.106;8.580;2023-03-05T01:18:36;11.30;;;8.30;;
11245;SDS011;59870;50.106;8.580;2023-03-05T01:21:04;10.43;;;8.10;;
11245;SDS011;59870;50.106;8.580;2023-03-05T01:23:32;8.37;;;7.67;;
11245;SDS011;59870;50.106;8.580;2023-03-05T01:26:02;8.63;;;7.43;;
11245;SDS011;59870;50.106;8.580;2023-03-05T01:28:29;8.93;;;8.07;;
11245;SDS011;59870;50.106;8.580;2023-03-05T01:30:58;11.73;;;7.30;;
11245;SDS011;59870;50.106;8.580;2023-03-05T01:33:25;8.60;;;5.77;;
11245;SDS011;59870;50.106;8.580;2023-03-05T01:35:53;9.43;;;6.23;;
11245;SDS011;59870;50.106;8.580;2023-03-05T01:38:20;6.93;;;6.30;;
11245;SDS011;59870;50.106;8.580;2023-03-05T01:40:47;7.13;;;6.43;;
11245;SDS011;59870;50.106;8.580;2023-03-05T01:43:20;12.47;;;7.43;;
11245;SDS011;59870;50.106;8.580;2023-03-05T01:48:43;8.70;;;6.83;;
11245;SDS011;59870;50.106;8.580;2023-03-05T01:51:16;9.07;;;6.33;;
11245;SDS011;59870;50.106;8.580;2023-03-05T01:53:45;11.03;;;6.40;;
11245;SDS011;59870;50.106;8.580;2023-03-05T01:56:13;11.60;;;6.30;;
11245;SDS011;59870;50.106;8.580;2023-03-05T01:58:46;6.63;;;5.77;;
11245;SDS011;59870;50.106;8.580;2023-03-05T02:01:14;6.07;;;5.30;;
11245;SDS011;59870;50.106;8.580;2023-03-05T02:03:43;6.13;;;5.47;;
11245;SDS011;59870;50.106;8.580;2023-03-05T02:06:11;5.93;;;5.27;;
11245;SDS011;59870;50.106;8.580;2023-03-05T02:08:39;6.07;;;5.07;;
11245;SDS011;59870;50.106;8.580;2023-03-05T02:11:07;6.90;;;6.20;;
11245;SDS011;59870;50.106;8.580;2023-03-05T02:13:35;11.90;;;6.33;;
11245;SDS011;59870;50.106;8.580;2023-03-05T02:16:07;6.80;;;5.50;;
11245;SDS011;59870;50.106;8.580;2023-03-05T02:18:34;7.00;;;6.03;;
11245;SDS011;59870;50.106;8.580;2023-03-05T02:21:06;7.90;;;5.93;;
11245;SDS011;59870;50.106;8.580;2023-03-05T02:23:35;9.00;;;6.43;;
11245;SDS011;59870;50.106;8.580;2023-03-05T02:26:05;7.97;;;6.83;;
11245;SDS011;59870;50.106;8.580;2023-03-05T02:28:39;9.23;;;6.90;;
11245;SDS011;59870;50.106;8.580;2023-03-05T02:31:18;6.83;;;6.20;;
11245;SDS011;59870;50.106;8.580;2023-03-05T02:33:47;7.27;;;6.57;;
11245;SDS011;59870;50.106;8.580;2023-03-05T02:36:16;6.60;;;5.83;;
11245;SDS011;59870;50.106;8.580;2023-03-05T02:38:45;11.93;;;6.40;;
11245;SDS011;59870;50.106;8.580;2023-03-05T02:41:13;12.37;;;6.10;;
11245;SDS011;59870;50.106;8.580;2023-03-05T02:43:42;8.63;;;6.50;;
11245;SDS011;59870;50.106;8.580;2023-03-05T02:46:09;8.80;;;6.53;;
11245;SDS011;59870;50.106;8.580;2023-03-05T02:48:38;9.60;;;6.90;;
11245;SDS011;59870;50.106;8.580;2023-03-05T02:51:07;7.47;;;6.47;;
11245;SDS011;59870;50.106;8.580;2023-03-05T02:53:34;11.37;;;6.80;;
11245;SDS011;59870;50.106;8.580;2023-03-05T02:56:02;11.00;;;6.57;;
11245;SDS011;59870;50.106;8.580;2023-03-05T02:58:32;9.37;;;6.77;;
11245;SDS011;59870;50.106;8.580;2023-03-05T03:01:00;8.60;;;6.73;;
11245;SDS011;59870;50.106;8.580;2023-03-05T03:03:28;7.97;;;7.17;;
11245;SDS011;59870;50.106;8.580;2023-03-05T03:05:56;7.07;;;6.47;;
11245;SDS011;59870;50.106;8.580;2023-03-05T03:08:23;9.70;;;7.10;;
11245;SDS011;59870;50.106;8.580;2023-03-05T03:10:50;7.93;;;6.47;;
11245;SDS011;59870;50.106;8.580;2023-03-05T03:13:18;8.77;;;6.87;;
11245;SDS011;59870;50.106;8.580;2023-03-05T03:15:45;10.80;;;6.37;;
11245;SDS011;59870;50.106;8.580;2023-03-05T03:18:12;6.83;;;6.23;;
11245;SDS011;59870;50.106;8.580;2023-03-05T03:20:40;6.80;;;6.20;;
11245;SDS011;59870;50.106;8.580;2023-03-05T03:23:07;7.03;;;6.27;;
11245;SDS011;59870;50.106;8.580;2023-03-05T03:25:34;11.13;;;7.13;;
11245;SDS011;59870;50.106;8.580;2023-03-05T03:28:02;8.97;;;6.23;;
11245;SDS011;59870;50.106;8.580;2023-03-05T03:30:29;7.07;;;6.27;;
11245;SDS011;59870;50.106;8.580;2023-03-05T03:32:56;6.63;;;6.13;;
11245;SDS011;59870;50.106;8.580;2023-03-05T03:35:24;7.40;;;6.70;;
11245;SDS011;59870;50.106;8.580;2023-03-05T03:37:51;7.77;;;6.70;;
11245;SDS011;59870;50.106;8.580;2023-03-05T03:40:18;7.17;;;6.47;;
11245;SDS011;59870;50.106;8.580;2023-03-05T03:42:46;8.47;;;7.27;;
11245;SDS011;59870;50.106;8.580;2023-03-05T03:45:13;8.50;;;7.33;;
11245;SDS011;59870;50.106;8.580;2023-03-05T03:47:40;12.57;;;8.47;;
11245;SDS011;59870;50.106;8.580;2023-03-05T03:50:08;7.70;;;7.10;;
11245;SDS011;59870;50.106;8.580;2023-03-05T03:52:37;8.20;;;7.50;;
11245;SDS011;59870;50.106;8.580;2023-03-05T03:55:05;8.33;;;7.53;;
11245;SDS011;59870;50.106;8.580;2023-03-05T03:57:33;8.00;;;7.20;;
11245;SDS011;59870;50.106;8.580;2023-03-05T04:00:01;8.17;;;7.50;;
11245;SDS011;59870;50.106;8.580;2023-03-05T04:02:37;10.00;;;7.53;;
11245;SDS011;59870;50.106;8.580;2023-03-05T04:05:05;8.40;;;7.10;;
11245;SDS011;59870;50.106;8.580;2023-03-05T04:07:33;10.00;;;7.53;;
11245;SDS011;59870;50.106;8.580;2023-03-05T04:10:01;9.73;;;8.20;;
11245;SDS011;59870;50.106;8.580;2023-03-05T04:12:30;9.30;;;7.13;;
11245;SDS011;59870;50.106;8.580;2023-03-05T04:14:57;9.90;;;7.23;;
11245;SDS011;59870;50.106;8.580;2023-03-05T04:17:25;6.97;;;6.20;;
11245;SDS011;59870;50.106;8.580;2023-03-05T04:19:52;7.83;;;7.03;;
11245;SDS011;59870;50.106;8.580;2023-03-05T04:22:19;13.73;;;7.47;;
11245;SDS011;59870;50.106;8.580;2023-03-05T04:24:47;8.00;;;6.00;;
11245;SDS011;59870;50.106;8.580;2023-03-05T04:27:14;7.13;;;5.63;;
11245;SDS011;59870;50.106;8.580;2023-03-05T04:29:41;7.33;;;5.87;;
11245;SDS011;59870;50.106;8.580;2023-03-05T04:32:09;9.23;;;6.93;;
11245;SDS011;59870;50.106;8.580;2023-03-05T04:34:36;7.17;;;6.47;;
11245;SDS011;59870;50.106;8.580;2023-03-05T04:37:04;6.63;;;5.93;;
11245;SDS011;59870;50.106;8.580;2023-03-05T04:39:31;5.90;;;5.30;;
11245;SDS011;59870;50.106;8.580;2023-03-05T04:41:59;5.60;;;5.13;;
11245;SDS011;59870;50.106;8.580;2023-03-05T04:44:26;4.70;;;4.30;;
11245;SDS011;59870;50.106;8.580;2023-03-05T04:46:53;4.30;;;3.90;;
11245;SDS011;59870;50.106;8.580;2023-03-05T04:49:21;5.40;;;4.47;;
11245;SDS011;59870;50.106;8.580;2023-03-05T04:51:48;6.07;;;3.87;;
11245;SDS011;59870;50.106;8.580;2023-03-05T04:54:16;4.63;;;4.00;;
11245;SDS011;59870;50.106;8.580;2023-03-05T04:56:43;4.37;;;3.60;;
11245;SDS011;59870;50.106;8.580;2023-03-05T04:59:10;5.50;;;4.27;;
11245;SDS011;59870;50.106;8.580;2023-03-05T05:01:37;4.60;;;3.97;;
11245;SDS011;59870;50.106;8.580;2023-03-05T05:04:05;3.50;;;3.30;;
11245;SDS011;59870;50.106;8.580;2023-03-05T05:06:33;4.27;;;3.83;;
11245;SDS011;59870;50.106;8.580;2023-03-05T05:09:00;4.23;;;3.60;;
11245;SDS011;59870;50.106;8.580;2023-03-05T05:11:28;4.37;;;3.80;;
11245;SDS011;59870;50.106;8.580;2023-03-05T05:13:55;3.70;;;3.40;;
11245;SDS011;59870;50.106;8.580;2023-03-05T05:16:22;4.57;;;3.57;;
11245;SDS011;59870;50.106;8.580;2023-03-05T05:18:50;3.90;;;3.33;;
11245;SDS011;59870;50.106;8.580;2023-03-05T05:21:17;3.20;;;2.90;;
11245;SDS011;59870;50.106;8.580;2023-03-05T05:23:46;3.50;;;3.30;;
11245;SDS011;59870;50.106;8.580;2023-03-05T05:26:13;3.27;;;3.07;;
11245;SDS011;59870;50.106;8.580;2023-03-05T05:28:41;3.57;;;3.27;;
11245;SDS011;59870;50.106;8.580;2023-03-05T05:31:11;4.20;;;3.30;;
11245;SDS011;59870;50.106;8.580;2023-03-05T05:33:40;5.73;;;3.63;;
11245;SDS011;59870;50.106;8.580;2023-03-05T05:36:09;4.83;;;3.73;;
11245;SDS011;59870;50.106;8.580;2023-03-05T05:38:39;5.37;;;3.43;;
11245;SDS011;59870;50.106;8.580;2023-03-05T05:41:07;7.70;;;3.13;;
11245;SDS011;59870;50.106;8.580;2023-03-05T05:43:36;3.30;;;3.10;;
11245;SDS011;59870;50.106;8.580;2023-03-05T05:46:05;4.73;;;3.20;;
11245;SDS011;59870;50.106;8.580;2023-03-05T05:48:35;3.73;;;3.50;;
11245;SDS011;59870;50.106;8.580;2023-03-05T05:51:09;6.17;;;3.50;;
11245;SDS011;59870;50.106;8.580;2023-03-05T05:53:39;3.50;;;3.20;;
11245;SDS011;59870;50.106;8.580;2023-03-05T05:56:07;3.70;;;3.40;;
11245;SDS011;59870;50.106;8.580;2023-03-05T05:58:37;6.23;;;3.73;;
11245;SDS011;59870;50.106;8.580;2023-03-05T06:01:22;3.63;;;3.30;;
11245;SDS011;59870;50.106;8.580;2023-03-05T06:03:52;4.17;;;3.77;;
11245;SDS011;59870;50.106;8.580;2023-03-05T06:06:21;5.30;;;3.70;;
11245;SDS011;59870;50.106;8.580;2023-03-05T06:08:50;5.00;;;3.53;;
11245;SDS011;59870;50.106;8.580;2023-03-05T06:11:19;5.37;;;3.90;;
11245;SDS011;59870;50.106;8.580;2023-03-05T06:13:47;6.23;;;3.83;;
11245;SDS011;59870;50.106;8.580;2023-03-05T06:16:16;4.67;;;4.23;;
11245;SDS011;59870;50.106;8.580;2023-03-05T06:18:45;4.97;;;4.47;;
11245;SDS011;59870;50.106;8.580;2023-03-05T06:21:14;7.40;;;4.03;;
11245;SDS011;59870;50.106;8.580;2023-03-05T06:23:43;5.07;;;4.60;;
11245;SDS011;59870;50.106;8.580;2023-03-05T06:26:12;4.70;;;4.30;;
11245;SDS011;59870;50.106;8.580;2023-03-05T06:28:41;4.20;;;3.57;;
11245;SDS011;59870;50.106;8.580;2023-03-05T06:31:16;4.43;;;3.93;;
11245;SDS011;59870;50.106;8.580;2023-03-05T06:33:47;4.20;;;3.90;;
11245;SDS011;59870;50.106;8.580;2023-03-05T06:36:16;3.80;;;3.50;;
11245;SDS011;59870;50.106;8.580;2023-03-05T06:38:45;4.20;;;3.37;;
11245;SDS011;59870;50.106;8.580;2023-03-05T06:41:16;3.87;;;3.57;;
11245;SDS011;59870;50.106;8.580;2023-03-05T06:43:45;4.20;;;3.57;;
11245;SDS011;59870;50.106;8.580;2023-03-05T06:46:15;4.33;;;3.93;;
11245;SDS011;59870;50.106;8.580;2023-03-05T06:48:42;4.37;;;3.90;;
11245;SDS011;59870;50.106;8.580;2023-03-05T06:51:14;4.47;;;4.13;;
11245;SDS011;59870;50.106;8.580;2023-03-05T06:53:43;6.43;;;4.40;;
11245;SDS011;59870;50.106;8.580;2023-03-05T06:56:13;4.83;;;3.77;;
11245;SDS011;59870;50.106;8.580;2023-03-05T06:58:43;5.07;;;4.63;;
11245;SDS011;59870;50.106;8.580;2023-03-05T07:01:12;7.33;;;4.00;;
11245;SDS011;59870;50.106;8.580;2023-03-05T07:03:40;4.60;;;4.20;;
11245;SDS011;59870;50.106;8.580;2023-03-05T07:06:08;4.30;;;4.00;;
11245;SDS011;59870;50.106;8.580;2023-03-05T07:08:37;4.07;;;3.70;;
11245;SDS011;59870;50.106;8.580;2023-03-05T07:11:12;5.73;;;4.10;;
11245;SDS011;59870;50.106;8.580;2023-03-05T07:13:41;4.80;;;4.40;;
11245;SDS011;59870;50.106;8.580;2023-03-05T07:16:11;5.40;;;4.90;;
11245;SDS011;59870;50.106;8.580;2023-03-05T07:18:41;5.73;;;5.23;;
11245;SDS011;59870;50.106;8.580;2023-03-05T07:21:08;5.10;;;4.60;;
11245;SDS011;59870;50.106;8.580;2023-03-05T07:23:38;8.80;;;5.07;;
11245;SDS011;59870;50.106;8.580;2023-03-05T07:26:05;6.20;;;5.60;;
11245;SDS011;59870;50.106;8.580;2023-03-05T07:28:33;6.03;;;5.47;;
11245;SDS011;59870;50.106;8.580;2023-03-05T07:31:03;7.60;;;5.93;;
11245;SDS011;59870;50.106;8.580;2023-03-05T07:33:34;11.20;;;5.33;;
11245;SDS011;59870;50.106;8.580;2023-03-05T07:36:03;6.73;;;6.13;;
11245;SDS011;59870;50.106;8.580;2023-03-05T07:38:33;6.23;;;5.60;;
11245;SDS011;59870;50.106;8.580;2023-03-05T07:41:08;7.23;;;6.37;;
11245;SDS011;59870;50.106;8.580;2023-03-05T07:43:42;8.87;;;6.50;;
11245;SDS011;59870;50.106;8.580;2023-03-05T07:46:13;9.07;;;6.27;;
11245;SDS011;59870;50.106;8.580;2023-03-05T07:48:42;10.07;;;7.00;;
11245;SDS011;59870;50.106;8.580;2023-03-05T07:51:11;11.30;;;7.03;;
11245;SDS011;59870;50.106;8.580;2023-03-05T07:53:44;7.40;;;6.47;;
11245;SDS011;59870;50.106;8.580;2023-03-05T07:56:13;7.27;;;6.50;;
11245;SDS011;59870;50.106;8.580;2023-03-05T07:58:46;7.40;;;6.40;;
11245;SDS011;59870;50.106;8.580;2023-03-05T08:01:13;7.63;;;6.83;;
11245;SDS011;59870;50.106;8.580;2023-03-05T08:03:41;9.63;;;7.03;;
11245;SDS011;59870;50.106;8.580;2023-03-05T08:06:10;7.67;;;6.97;;
11245;SDS011;59870;50.106;8.580;2023-03-05T08:08:38;7.17;;;6.43;;
11245;SDS011;59870;50.106;8.580;2023-03-05T08:11:06;9.33;;;7.73;;
11245;SDS011;59870;50.106;8.580;2023-03-05T08:13:35;10.50;;;7.33;;
11245;SDS011;59870;50.106;8.580;2023-03-05T08:16:03;8.03;;;7.43;;
11245;SDS011;59870;50.106;8.580;2023-03-05T08:18:35;12.83;;;7.63;;
11245;SDS011;59870;50.106;8.580;2023-03-05T08:21:06;8.33;;;7.20;;
11245;SDS011;59870;50.106;8.580;2023-03-05T08:23:41;9.20;;;7.60;;
11245;SDS011;59870;50.106;8.580;2023-03-05T08:26:11;10.50;;;7.40;;
11245;SDS011;59870;50.106;8.580;2023-03-05T08:28:39;9.63;;;8.40;;
11245;SDS011;59870;50.106;8.580;2023-03-05T08:31:08;9.80;;;8.80;;
11245;SDS011;59870;50.106;8.580;2023-03-05T08:33:36;9.10;;;8.30;;
11245;SDS011;59870;50.106;8.580;2023-03-05T08:36:05;9.37;;;8.00;;
11245;SDS011;59870;50.106;8.580;2023-03-05T08:38:34;10.03;;;9.07;;
11245;SDS011;59870;50.106;8.580;2023-03-05T08:41:02;13.90;;;8.97;;
11245;SDS011;59870;50.106;8.580;2023-03-05T08:43:30;11.60;;;9.07;;
11245;SDS011;59870;50.106;8.580;2023-03-05T08:45:59;9.07;;;8.20;;
11245;SDS011;59870;50.106;8.580;2023-03-05T08:48:28;11.03;;;9.00;;
11245;SDS011;59870;50.106;8.580;2023-03-05T08:51:03;13.77;;;8.83;;
11245;SDS011;59870;50.106;8.580;2023-03-05T08:53:34;10.37;;;8.77;;
11245;SDS011;59870;50.106;8.580;2023-03-05T08:56:02;10.07;;;9.17;;
11245;SDS011;59870;50.106;8.580;2023-03-05T08:58:30;10.10;;;9.00;;
11245;SDS011;59870;50.106;8.580;2023-03-05T09:00:58;8.33;;;7.53;;
11245;SDS011;59870;50.106;8.580;2023-03-05T09:03:26;10.10;;;8.33;;
11245;SDS011;59870;50.106;8.580;2023-03-05T09:05:57;10.13;;;8.30;;
11245;SDS011;59870;50.106;8.580;2023-03-05T09:08:27;10.43;;;8.80;;
11245;SDS011;59870;50.106;8.580;2023-03-05T09:10:55;9.70;;;8.73;;
11245;SDS011;59870;50.106;8.580;2023-03-05T09:13:24;11.13;;;8.93;;
11245;SDS011;59870;50.106;8.580;2023-03-05T09:15:55;10.87;;;9.87;;
11245;SDS011;59870;50.106;8.580;2023-03-05T09:18:24;9.87;;;9.07;;
11245;SDS011;59870;50.106;8.580;2023-03-05T09:20:52;8.77;;;7.90;;
11245;SDS011;59870;50.106;8.580;2023-03-05T09:23:20;9.03;;;8.23;;
11245;SDS011;59870;50.106;8.580;2023-03-05T09:25:48;9.10;;;8.23;;
11245;SDS011;59870;50.106;8.580;2023-03-05T09:28:15;9.37;;;8.57;;
11245;SDS011;59870;50.106;8.580;2023-03-05T09:30:43;9.37;;;8.20;;
11245;SDS011;59870;50.106;8.580;2023-03-05T09:33:10;10.93;;;9.77;;
11245;SDS011;59870;50.106;8.580;2023-03-05T09:35:37;13.70;;;9.60;;
11245;SDS011;59870;50.106;8.580;2023-03-05T09:38:05;12.90;;;9.57;;
11245;SDS011;59870;50.106;8.580;2023-03-05T09:40:38;11.97;;;9.87;;
11245;SDS011;59870;50.106;8.580;2023-03-05T09:43:38;13.00;;;9.97;;
11245;SDS011;59870;50.106;8.580;2023-03-05T09:46:34;11.30;;;9.10;;
11245;SDS011;59870;50.106;8.580;2023-03-05T09:49:15;10.60;;;9.60;;
11245;SDS011;59870;50.106;8.580;2023-03-05T09:51:56;10.27;;;9.07;;
11245;SDS011;59870;50.106;8.580;2023-03-05T09:54:37;10.00;;;8.93;;
11245;SDS011;59870;50.106;8.580;2023-03-05T09:57:11;10.07;;;9.07;;
11245;SDS011;59870;50.106;8.580;2023-03-05T09:59:48;9.97;;;8.73;;
11245;SDS011;59870;50.106;8.580;2023-03-05T10:02:24;10.13;;;9.00;;
11245;SDS011;59870;50.106;8.580;2023-03-05T10:04:56;10.13;;;9.13;;
11245;SDS011;59870;50.106;8.580;2023-03-05T10:07:31;10.70;;;8.93;;
11245;SDS011;59870;50.106;8.580;2023-03-05T10:10:04;10.50;;;9.40;;
11245;SDS011;59870;50.106;8.580;2023-03-05T10:17:52;9.67;;;8.73;;
11245;SDS011;59870;50.106;8.580;2023-03-05T10:31:44;10.17;;;8.80;;
11245;SDS011;59870;50.106;8.580;2023-03-05T10:34:42;10.73;;;9.63;;
11245;SDS011;59870;50.106;8.580;2023-03-05T10:37:26;10.40;;;9.50;;
11245;SDS011;59870;50.106;8.580;2023-03-05T10:40:17;10.40;;;9.40;;
11245;SDS011;59870;50.106;8.580;2023-03-05T10:45:49;10.73;;;9.70;;
11245;SDS011;59870;50.106;8.580;2023-03-05T10:48:33;15.77;;;10.83;;
11245;SDS011;59870;50.106;8.580;2023-03-05T10:51:12;18.63;;;11.57;;
11245;SDS011;59870;50.106;8.580;2023-03-05T10:53:54;16.57;;;11.07;;
11245;SDS011;59870;50.106;8.580;2023-03-05T10:56:25;9.87;;;8.97;;
11245;SDS011;59870;50.106;8.580;2023-03-05T10:58:54;10.13;;;9.20;;
11245;SDS011;59870;50.106;8.580;2023-03-05T11:01:23;12.47;;;10.53;;
11245;SDS011;59870;50.106;8.580;2023-03-05T11:11:44;10.70;;;9.33;;
11245;SDS011;59870;50.106;8.580;2023-03-05T11:14:28;11.27;;;9.50;;
11245;SDS011;59870;50.106;8.580;2023-03-05T11:16:59;10.30;;;9.33;;
11245;SDS011;59870;50.106;8.580;2023-03-05T11:19:31;9.33;;;8.47;;
11245;SDS011;59870;50.106;8.580;2023-03-05T11:22:09;11.57;;;8.70;;
11245;SDS011;59870;50.106;8.580;2023-03-05T11:24:40;10.50;;;9.00;;
11245;SDS011;59870;50.106;8.580;2023-03-05T11:27:25;10.10;;;9.10;;
11245;SDS011;59870;50.106;8.580;2023-03-05T11:29:58;9.97;;;9.07;;
11245;SDS011;59870;50.106;8.580;2023-03-05T11:32:26;11.70;;;9.27;;
11245;SDS011;59870;50.106;8.580;2023-03-05T11:34:55;10.03;;;9.10;;
11245;SDS011;59870;50.106;8.580;2023-03-05T11:37:27;11.70;;;9.27;;
11245;SDS011;59870;50.106;8.580;2023-03-05T11:42:52;10.70;;;8.77;;
11245;SDS011;59870;50.106;8.580;2023-03-05T11:48:34;9.40;;;8.57;;
11245;SDS011;59870;50.106;8.580;2023-03-05T11:51:24;11.17;;;8.40;;
11245;SDS011;59870;50.106;8.580;2023-03-05T11:54:41;7.90;;;7.20;;
11245;SDS011;59870;50.106;8.580;2023-03-05T12:04:29;8.30;;;7.57;;
11245;SDS011;59870;50.106;8.580;2023-03-05T12:06:59;9.60;;;7.33;;
11245;SDS011;59870;50.106;8.580;2023-03-05T12:09:39;8.50;;;7.73;;
11245;SDS011;59870;50.106;8.580;2023-03-05T12:18:06;8.23;;;7.47;;
11245;SDS011;59870;50.106;8.580;2023-03-05T12:20:41;8.47;;;7.67;;
11245;SDS011;59870;50.106;8.580;2023-03-05T12:23:22;7.07;;;6.53;;
11245;SDS011;59870;50.106;8.580;2023-03-05T12:25:53;7.20;;;6.63;;
11245;SDS011;59870;50.106;8.580;2023-03-05T12:31:04;9.13;;;7.17;;
11245;SDS011;59870;50.106;8.580;2023-03-05T12:33:51;7.23;;;6.63;;
11245;SDS011;59870;50.106;8.580;2023-03-05T12:46:33;6.90;;;6.30;;
11245;SDS011;59870;50.106;8.580;2023-03-05T12:51:48;6.70;;;6.10;;
11245;SDS011;59870;50.106;8.580;2023-03-05T12:56:51;7.13;;;6.53;;
11245;SDS011;59870;50.106;8.580;2023-03-05T12:59:22;6.40;;;5.60;;
11245;SDS011;59870;50.106;8.580;2023-03-05T13:01:58;6.30;;;5.70;;
11245;SDS011;59870;50.106;8.580;2023-03-05T13:04:29;6.10;;;5.70;;
11245;SDS011;59870;50.106;8.580;2023-03-05T13:06:59;7.07;;;5.57;;
11245;SDS011;59870;50.106;8.580;2023-03-05T13:09:31;6.17;;;5.67;;
11245;SDS011;59870;50.106;8.580;2023-03-05T13:12:01;5.37;;;4.97;;
11245;SDS011;59870;50.106;8.580;2023-03-05T13:14:36;5.73;;;5.33;;
11245;SDS011;59870;50.106;8.580;2023-03-05T13:19:55;5.17;;;4.67;;
11245;SDS011;59870;50.106;8.580;2023-03-05T13:22:24;5.17;;;4.77;;
11245;SDS011;59870;50.106;8.580;2023-03-05T13:27:41;5.10;;;4.70;;
11245;SDS011;59870;50.106;8.580;2023-03-05T13:30:22;4.93;;;4.60;;
11245;SDS011;59870;50.106;8.580;2023-03-05T13:32:57;5.90;;;5.40;;
11245;SDS011;59870;50.106;8.580;2023-03-05T13:35:29;6.27;;;5.67;;
11245;SDS011;59870;50.106;8.580;2023-03-05T13:37:59;5.30;;;5.00;;
11245;SDS011;59870;50.106;8.580;2023-03-05T13:40:29;5.60;;;5.20;;
11245;SDS011;59870;50.106;8.580;2023-03-05T13:43:11;6.13;;;5.63;;
11245;SDS011;59870;50.106;8.580;2023-03-05T13:45:51;5.30;;;4.90;;
11245;SDS011;59870;50.106;8.580;2023-03-05T13:48:20;4.73;;;4.37;;
11245;SDS011;59870;50.106;8.580;2023-03-05T13:50:57;6.17;;;3.97;;
11245;SDS011;59870;50.106;8.580;2023-03-05T13:53:29;4.63;;;4.33;;
11245;SDS011;59870;50.106;8.580;2023-03-05T13:56:05;4.50;;;4.20;;
11245;SDS011;59870;50.106;8.580;2023-03-05T14:03:57;4.90;;;4.50;;
11245;SDS011;59870;50.106;8.580;2023-03-05T14:06:32;4.20;;;3.90;;
11245;SDS011;59870;50.106;8.580;2023-03-05T14:09:07;5.33;;;4.17;;
11245;SDS011;59870;50.106;8.580;2023-03-05T14:11:52;5.13;;;4.83;;
11245;SDS011;59870;50.106;8.580;2023-03-05T14:14:20;4.73;;;4.33;;
11245;SDS011;59870;50.106;8.580;2023-03-05T14:16:50;6.07;;;4.67;;
11245;SDS011;59870;50.106;8.580;2023-03-05T14:22:03;4.73;;;4.43;;
11245;SDS011;59870;50.106;8.580;2023-03-05T14:24:32;6.73;;;5.27;;
11245;SDS011;59870;50.106;8.580;2023-03-05T14:27:01;4.97;;;4.60;;
11245;SDS011;59870;50.106;8.580;2023-03-05T14:29:34;4.60;;;4.20;;
11245;SDS011;59870;50.106;8.580;2023-03-05T14:32:06;4.73;;;4.30;;
11245;SDS011;59870;50.106;8.580;2023-03-05T14:34:43;4.77;;;4.43;;
11245;SDS011;59870;50.106;8.580;2023-03-05T14:37:23;4.23;;;3.93;;
11245;SDS011;59870;50.106;8.580;2023-03-05T14:39:55;4.60;;;4.20;;
11245;SDS011;59870;50.106;8.580;2023-03-05T14:45:23;4.67;;;4.27;;
11245;SDS011;59870;50.106;8.580;2023-03-05T14:47:53;4.37;;;3.97;;
11245;SDS011;59870;50.106;8.580;2023-03-05T14:50:28;4.20;;;3.80;;
11245;SDS011;59870;50.106;8.580;2023-03-05T14:53:01;3.93;;;3.73;;
11245;SDS011;59870;50.106;8.580;2023-03-05T14:55:33;5.57;;;4.10;;
11245;SDS011;59870;50.106;8.580;2023-03-05T14:58:02;3.90;;;3.60;;
11245;SDS011;59870;50.106;8.580;2023-03-05T15:00:33;5.00;;;4.60;;
11245;SDS011;59870;50.106;8.580;2023-03-05T15:03:00;4.97;;;4.57;;
11245;SDS011;59870;50.106;8.580;2023-03-05T15:05:29;4.70;;;4.37;;
11245;SDS011;59870;50.106;8.580;2023-03-05T15:07:57;4.60;;;4.20;;
11245;SDS011;59870;50.106;8.580;2023-03-05T15:10:25;4.83;;;4.50;;
11245;SDS011;59870;50.106;8.580;2023-03-05T15:12:52;5.13;;;4.77;;
11245;SDS011;59870;50.106;8.580;2023-03-05T15:15:20;4.83;;;4.43;;
11245;SDS011;59870;50.106;8.580;2023-03-05T15:17:49;4.70;;;4.40;;
11245;SDS011;59870;50.106;8.580;2023-03-05T15:20:23;4.50;;;4.20;;
11245;SDS011;59870;50.106;8.580;2023-03-05T15:23:00;4.80;;;4.40;;
11245;SDS011;59870;50.106;8.580;2023-03-05T15:25:33;6.10;;;5.10;;
11245;SDS011;59870;50.106;8.580;2023-03-05T15:28:00;6.20;;;5.30;;
11245;SDS011;59870;50.106;8.580;2023-03-05T15:30:32;5.47;;;4.97;;
11245;SDS011;59870;50.106;8.580;2023-03-05T15:33:08;5.87;;;5.30;;
11245;SDS011;59870;50.106;8.580;2023-03-05T15:36:28;5.90;;;5.30;;
11245;SDS011;59870;50.106;8.580;2023-03-05T15:42:51;6.07;;;5.23;;
11245;SDS011;59870;50.106;8.580;2023-03-05T15:45:20;6.33;;;5.73;;
11245;SDS011;59870;50.106;8.580;2023-03-05T15:47:51;6.47;;;5.93;;
11245;SDS011;59870;50.106;8.580;2023-03-05T15:50:23;6.73;;;5.73;;
11245;SDS011;59870;50.106;8.580;2023-03-05T15:52:56;6.90;;;6.30;;
11245;SDS011;59870;50.106;8.580;2023-03-05T16:00:38;6.50;;;6.00;;
11245;SDS011;59870;50.106;8.580;2023-03-05T16:07:41;5.50;;;5.03;;
11245;SDS011;59870;50.106;8.580;2023-03-05T16:15:19;6.67;;;6.10;;
11245;SDS011;59870;50.106;8.580;2023-03-05T16:41:54;6.37;;;5.97;;
11245;SDS011;59870;50.106;8.580;2023-03-05T16:44:31;17.40;;;6.17;;
11245;SDS011;59870;50.106;8.580;2023-03-05T17:09:09;6.13;;;5.63;;
11245;SDS011;59870;50.106;8.580;2023-03-05T17:11:38;5.50;;;5.00;;
11245;SDS011;59870;50.106;8.580;2023-03-05T17:14:09;5.50;;;5.10;;
11245;SDS011;59870;50.106;8.580;2023-03-05T17:16:37;5.40;;;5.00;;
11245;SDS011;59870;50.106;8.580;2023-03-05T17:19:04;6.10;;;5.50;;
11245;SDS011;59870;50.106;8.580;2023-03-05T17:21:32;6.10;;;5.50;;
11245;SDS011;59870;50.106;8.580;2023-03-05T17:24:01;6.80;;;5.13;;
11245;SDS011;59870;50.106;8.580;2023-03-05T17:26:28;5.13;;;4.77;;
11245;SDS011;59870;50.106;8.580;2023-03-05T17:28:58;6.30;;;5.13;;
11245;SDS011;59870;50.106;8.580;2023-03-05T17:31:25;6.47;;;5.80;;
11245;SDS011;59870;50.106;8.580;2023-03-05T17:33:56;6.23;;;5.73;;